sensor_id;sensor_type;location;lat;lon;timestamp;pressure;altitude;pressure_sealevel;temperature;humidity
62025;BME280;47978;49.118;12.146;2022-11-20T00:01:22;96985.50;;;0.95;90.99
62025;BME280;47978;49.118;12.146;2022-11-20T00:03:50;96971.28;;;0.88;91.32
62025;BME280;47978;49.118;12.146;2022-11-20T00:06:17;96980.41;;;1.04;90.49
62025;BME280;47978;49.118;12.146;2022-11-20T00:08:44;96978.44;;;0.94;91.30
62025;BME280;47978;49.118;12.146;2022-11-20T00:11:11;96976.66;;;1.10;89.67
62025;BME280;47978;49.118;12.146;2022-11-20T00:13:41;96966.03;;;1.08;89.04
62025;BME280;47978;49.118;12.146;2022-11-20T00:16:10;96964.03;;;0.99;89.91
62025;BME280;47978;49.118;12.146;2022-11-20T00:18:37;96960.03;;;1.06;89.49
62025;BME280;47978;49.118;12.146;2022-11-20T00:21:03;96970.81;;;0.96;89.78
62025;BME280;47978;49.118;12.146;2022-11-20T00:23:30;96960.19;;;0.95;90.60
62025;BME280;47978;49.118;12.146;2022-11-20T00:25:56;96958.25;;;0.90;91.04
62025;BME280;47978;49.118;12.146;2022-11-20T00:28:23;96954.94;;;0.88;91.19
62025;BME280;47978;49.118;12.146;2022-11-20T00:30:49;96955.47;;;0.85;91.72
62025;BME280;47978;49.118;12.146;2022-11-20T00:33:17;96966.19;;;0.97;90.91
62025;BME280;47978;49.118;12.146;2022-11-20T00:35:43;96968.25;;;1.11;90.63
62025;BME280;47978;49.118;12.146;2022-11-20T00:38:09;96970.56;;;0.98;90.73
62025;BME280;47978;49.118;12.146;2022-11-20T00:40:36;96974.56;;;0.90;91.13
62025;BME280;47978;49.118;12.146;2022-11-20T00:45:36;96976.53;;;0.95;91.25
62025;BME280;47978;49.118;12.146;2022-11-20T00:48:03;96983.97;;;1.04;90.57
62025;BME280;47978;49.118;12.146;2022-11-20T00:50:30;96976.78;;;0.93;90.78
62025;BME280;47978;49.118;12.146;2022-11-20T00:52:57;96982.22;;;0.93;91.46
62025;BME280;47978;49.118;12.146;2022-11-20T00:55:23;96978.91;;;0.91;91.40
62025;BME280;47978;49.118;12.146;2022-11-20T00:57:49;96967.91;;;1.03;91.25
62025;BME280;47978;49.118;12.146;2022-11-20T01:00:16;96973.53;;;0.96;91.32
62025;BME280;47978;49.118;12.146;2022-11-20T01:02:42;96966.75;;;0.99;90.79
62025;BME280;47978;49.118;12.146;2022-11-20T01:05:09;96979.78;;;0.97;91.01
62025;BME280;47978;49.118;12.146;2022-11-20T01:07:36;96981.69;;;0.96;91.29
62025;BME280;47978;49.118;12.146;2022-11-20T01:10:03;96976.16;;;0.86;91.92
62025;BME280;47978;49.118;12.146;2022-11-20T01:12:29;96975.97;;;0.93;91.55
62025;BME280;47978;49.118;12.146;2022-11-20T01:14:56;96968.03;;;0.91;91.86
62025;BME280;47978;49.118;12.146;2022-11-20T01:17:22;96964.72;;;0.84;91.79
62025;BME280;47978;49.118;12.146;2022-11-20T01:19:49;96973.53;;;0.96;91.53
62025;BME280;47978;49.118;12.146;2022-11-20T01:22:15;96977.66;;;0.99;91.62
62025;BME280;47978;49.118;12.146;2022-11-20T01:24:43;96970.88;;;1.01;91.62
62025;BME280;47978;49.118;12.146;2022-11-20T01:27:09;96979.59;;;1.03;91.71
62025;BME280;47978;49.118;12.146;2022-11-20T01:29:35;96981.88;;;1.11;90.87
62025;BME280;47978;49.118;12.146;2022-11-20T01:32:02;96985.66;;;1.10;90.80
62025;BME280;47978;49.118;12.146;2022-11-20T01:34:28;96988.13;;;1.12;90.83
62025;BME280;47978;49.118;12.146;2022-11-20T01:36:55;96982.31;;;1.03;91.34
62025;BME280;47978;49.118;12.146;2022-11-20T01:39:22;96989.97;;;1.06;91.22
62025;BME280;47978;49.118;12.146;2022-11-20T01:41:51;96988.28;;;1.00;91.54
62025;BME280;47978;49.118;12.146;2022-11-20T01:44:19;96991.53;;;0.97;92.03
62025;BME280;47978;49.118;12.146;2022-11-20T01:46:48;96980.59;;;0.92;92.05
62025;BME280;47978;49.118;12.146;2022-11-20T01:49:19;96980.13;;;1.00;91.74
62025;BME280;47978;49.118;12.146;2022-11-20T01:51:48;96974.31;;;0.92;91.45
62025;BME280;47978;49.118;12.146;2022-11-20T01:54:17;96980.38;;;0.99;91.27
62025;BME280;47978;49.118;12.146;2022-11-20T01:56:45;96978.22;;;1.01;91.26
62025;BME280;47978;49.118;12.146;2022-11-20T01:59:15;96972.31;;;1.09;90.99
62025;BME280;47978;49.118;12.146;2022-11-20T02:01:43;96983.94;;;1.31;89.24
62025;BME280;47978;49.118;12.146;2022-11-20T02:04:10;96974.69;;;1.32;88.80
62025;BME280;47978;49.118;12.146;2022-11-20T02:06:38;96972.72;;;1.28;89.42
62025;BME280;47978;49.118;12.146;2022-11-20T02:09:06;96973.19;;;1.15;90.23
62025;BME280;47978;49.118;12.146;2022-11-20T02:11:33;96971.38;;;1.25;89.48
62025;BME280;47978;49.118;12.146;2022-11-20T02:13:59;96975.72;;;1.26;89.44
62025;BME280;47978;49.118;12.146;2022-11-20T02:16:28;96975.97;;;1.25;89.44
62025;BME280;47978;49.118;12.146;2022-11-20T02:18:55;96985.81;;;0.99;91.02
62025;BME280;47978;49.118;12.146;2022-11-20T02:21:24;96973.63;;;1.06;91.31
62025;BME280;47978;49.118;12.146;2022-11-20T02:24:04;96971.72;;;1.07;91.41
62025;BME280;47978;49.118;12.146;2022-11-20T02:26:33;96965.13;;;0.98;91.52
62025;BME280;47978;49.118;12.146;2022-11-20T02:29:00;96970.97;;;0.84;91.92
62025;BME280;47978;49.118;12.146;2022-11-20T02:31:27;96965.31;;;0.91;91.59
62025;BME280;47978;49.118;12.146;2022-11-20T02:33:54;96967.94;;;1.08;91.48
62025;BME280;47978;49.118;12.146;2022-11-20T02:36:21;96963.63;;;1.12;91.21
62025;BME280;47978;49.118;12.146;2022-11-20T02:38:47;96962.09;;;1.26;90.95
62025;BME280;47978;49.118;12.146;2022-11-20T02:41:16;96965.81;;;1.15;90.51
62025;BME280;47978;49.118;12.146;2022-11-20T02:43:42;96961.16;;;1.10;90.82
62025;BME280;47978;49.118;12.146;2022-11-20T02:46:09;96963.41;;;1.19;91.07
62025;BME280;47978;49.118;12.146;2022-11-20T02:48:35;96962.34;;;1.25;91.03
62025;BME280;47978;49.118;12.146;2022-11-20T02:51:02;96971.16;;;1.32;90.59
62025;BME280;47978;49.118;12.146;2022-11-20T02:53:28;96962.41;;;1.30;90.47
62025;BME280;47978;49.118;12.146;2022-11-20T02:55:54;96957.22;;;1.28;90.79
62025;BME280;47978;49.118;12.146;2022-11-20T02:58:22;96966.41;;;1.22;91.11
62025;BME280;47978;49.118;12.146;2022-11-20T03:00:49;96967.31;;;1.33;90.81
62025;BME280;47978;49.118;12.146;2022-11-20T03:03:15;96954.50;;;1.28;90.94
62025;BME280;47978;49.118;12.146;2022-11-20T03:05:41;96957.28;;;1.39;90.73
62025;BME280;47978;49.118;12.146;2022-11-20T03:08:08;96951.47;;;1.25;91.33
62025;BME280;47978;49.118;12.146;2022-11-20T03:10:34;96948.84;;;1.35;90.93
62025;BME280;47978;49.118;12.146;2022-11-20T03:13:00;96947.16;;;1.29;90.85
62025;BME280;47978;49.118;12.146;2022-11-20T03:15:28;96949.09;;;1.33;90.47
62025;BME280;47978;49.118;12.146;2022-11-20T03:17:54;96950.75;;;1.34;90.83
62025;BME280;47978;49.118;12.146;2022-11-20T03:20:21;96948.84;;;1.35;90.80
62025;BME280;47978;49.118;12.146;2022-11-20T03:22:48;96953.84;;;1.16;91.61
62025;BME280;47978;49.118;12.146;2022-11-20T03:25:14;96958.75;;;1.19;91.77
62025;BME280;47978;49.118;12.146;2022-11-20T03:27:41;96946.47;;;1.11;91.82
62025;BME280;47978;49.118;12.146;2022-11-20T03:30:07;96953.66;;;1.23;91.91
62025;BME280;47978;49.118;12.146;2022-11-20T03:32:35;96945.78;;;1.26;91.77
62025;BME280;47978;49.118;12.146;2022-11-20T03:35:02;96951.88;;;1.06;92.29
62025;BME280;47978;49.118;12.146;2022-11-20T03:37:28;96950.91;;;1.23;91.74
62025;BME280;47978;49.118;12.146;2022-11-20T03:39:54;96955.03;;;1.30;91.21
62025;BME280;47978;49.118;12.146;2022-11-20T03:42:21;96947.75;;;1.36;91.19
62025;BME280;47978;49.118;12.146;2022-11-20T03:44:47;96944.81;;;1.43;91.08
62025;BME280;47978;49.118;12.146;2022-11-20T03:47:14;96949.13;;;1.39;91.15
62025;BME280;47978;49.118;12.146;2022-11-20T03:49:41;96951.31;;;1.42;90.83
62025;BME280;47978;49.118;12.146;2022-11-20T03:52:08;96951.03;;;1.38;91.32
62025;BME280;47978;49.118;12.146;2022-11-20T03:54:34;96951.22;;;1.26;91.76
62025;BME280;47978;49.118;12.146;2022-11-20T03:57:00;96951.81;;;1.33;91.59
62025;BME280;47978;49.118;12.146;2022-11-20T03:59:27;96950.75;;;1.34;91.17
62025;BME280;47978;49.118;12.146;2022-11-20T04:01:53;96960.84;;;1.39;91.34
62025;BME280;47978;49.118;12.146;2022-11-20T04:04:19;96956.63;;;1.21;92.73
62025;BME280;47978;49.118;12.146;2022-11-20T04:06:47;96956.03;;;1.19;93.14
62025;BME280;47978;49.118;12.146;2022-11-20T04:09:13;96953.66;;;1.28;92.81
62025;BME280;47978;49.118;12.146;2022-11-20T04:11:40;96948.34;;;1.43;92.13
62025;BME280;47978;49.118;12.146;2022-11-20T04:14:11;96939.38;;;1.48;91.67
62025;BME280;47978;49.118;12.146;2022-11-20T04:16:38;96950.06;;;1.54;90.96
62025;BME280;47978;49.118;12.146;2022-11-20T04:19:05;96951.72;;;1.55;90.74
62025;BME280;47978;49.118;12.146;2022-11-20T04:21:32;96946.53;;;1.54;90.92
62025;BME280;47978;49.118;12.146;2022-11-20T04:24:00;96948.97;;;1.55;90.95
62025;BME280;47978;49.118;12.146;2022-11-20T04:26:27;96943.16;;;1.42;90.81
62025;BME280;47978;49.118;12.146;2022-11-20T04:28:54;96943.28;;;1.25;92.43
62025;BME280;47978;49.118;12.146;2022-11-20T04:31:22;96937.44;;;1.06;92.87
62025;BME280;47978;49.118;12.146;2022-11-20T04:33:48;96933.72;;;1.17;93.18
62025;BME280;47978;49.118;12.146;2022-11-20T04:36:15;96937.72;;;1.42;91.88
62025;BME280;47978;49.118;12.146;2022-11-20T04:38:42;96930.25;;;1.27;92.02
62025;BME280;47978;49.118;12.146;2022-11-20T04:41:11;96930.53;;;1.25;92.58
62025;BME280;47978;49.118;12.146;2022-11-20T04:43:40;96928.47;;;1.43;92.04
62025;BME280;47978;49.118;12.146;2022-11-20T04:46:06;96934.69;;;1.38;91.49
62025;BME280;47978;49.118;12.146;2022-11-20T04:48:34;96927.09;;;1.40;92.04
62025;BME280;47978;49.118;12.146;2022-11-20T04:51:02;96926.09;;;1.19;93.17
62025;BME280;47978;49.118;12.146;2022-11-20T04:53:28;96927.34;;;1.39;92.64
62025;BME280;47978;49.118;12.146;2022-11-20T04:55:58;96928.00;;;1.51;92.14
62025;BME280;47978;49.118;12.146;2022-11-20T04:58:26;96918.97;;;1.50;91.73
62025;BME280;47978;49.118;12.146;2022-11-20T05:00:52;96923.88;;;1.53;92.02
62025;BME280;47978;49.118;12.146;2022-11-20T05:03:19;96929.28;;;1.43;91.96
62025;BME280;47978;49.118;12.146;2022-11-20T05:05:45;96927.84;;;1.35;92.74
62025;BME280;47978;49.118;12.146;2022-11-20T05:08:11;96926.41;;;1.23;93.46
62025;BME280;47978;49.118;12.146;2022-11-20T05:10:38;96924.28;;;1.30;93.46
62025;BME280;47978;49.118;12.146;2022-11-20T05:13:04;96914.88;;;1.48;92.80
62025;BME280;47978;49.118;12.146;2022-11-20T05:15:32;96918.81;;;1.30;93.24
62025;BME280;47978;49.118;12.146;2022-11-20T05:17:58;96917.25;;;1.39;93.09
62025;BME280;47978;49.118;12.146;2022-11-20T05:20:25;96922.53;;;1.56;92.14
62025;BME280;47978;49.118;12.146;2022-11-20T05:22:51;96929.34;;;1.53;92.49
62025;BME280;47978;49.118;12.146;2022-11-20T05:25:17;96921.59;;;1.35;93.32
62025;BME280;47978;49.118;12.146;2022-11-20T05:27:44;96919.97;;;1.34;93.88
62025;BME280;47978;49.118;12.146;2022-11-20T05:30:11;96917.75;;;1.31;93.93
62025;BME280;47978;49.118;12.146;2022-11-20T05:32:39;96911.81;;;1.39;93.19
62025;BME280;47978;49.118;12.146;2022-11-20T05:35:05;96918.44;;;1.53;92.82
62025;BME280;47978;49.118;12.146;2022-11-20T05:37:32;96910.53;;;1.52;92.86
62025;BME280;47978;49.118;12.146;2022-11-20T05:39:58;96910.19;;;1.38;93.43
62025;BME280;47978;49.118;12.146;2022-11-20T05:42:25;96914.88;;;1.48;92.67
62025;BME280;47978;49.118;12.146;2022-11-20T05:44:51;96916.78;;;1.47;93.08
62025;BME280;47978;49.118;12.146;2022-11-20T05:47:17;96917.91;;;1.56;93.43
62025;BME280;47978;49.118;12.146;2022-11-20T05:49:45;96919.53;;;1.52;93.26
62025;BME280;47978;49.118;12.146;2022-11-20T05:52:11;96914.09;;;1.52;93.61
62025;BME280;47978;49.118;12.146;2022-11-20T05:54:38;96912.72;;;1.50;93.57
62025;BME280;47978;49.118;12.146;2022-11-20T05:57:04;96920.31;;;1.48;93.56
62025;BME280;47978;49.118;12.146;2022-11-20T05:59:30;96918.47;;;1.58;92.61
62025;BME280;47978;49.118;12.146;2022-11-20T06:01:57;96925.47;;;1.44;93.35
62025;BME280;47978;49.118;12.146;2022-11-20T06:04:23;96911.88;;;1.49;93.66
62025;BME280;47978;49.118;12.146;2022-11-20T06:06:51;96917.63;;;1.53;93.99
62025;BME280;47978;49.118;12.146;2022-11-20T06:09:17;96917.94;;;1.62;93.47
62025;BME280;47978;49.118;12.146;2022-11-20T06:11:44;96910.84;;;1.55;93.06
62025;BME280;47978;49.118;12.146;2022-11-20T06:14:11;96914.88;;;1.48;93.86
62025;BME280;47978;49.118;12.146;2022-11-20T06:16:37;96922.66;;;1.71;92.70
62025;BME280;47978;49.118;12.146;2022-11-20T06:19:04;96917.44;;;1.65;92.33
62025;BME280;47978;49.118;12.146;2022-11-20T06:21:30;96915.22;;;1.62;93.18
62025;BME280;47978;49.118;12.146;2022-11-20T06:23:58;96914.94;;;1.58;93.25
62025;BME280;47978;49.118;12.146;2022-11-20T06:26:25;96916.03;;;1.62;93.08
62025;BME280;47978;49.118;12.146;2022-11-20T06:28:52;96921.53;;;1.67;93.11
62025;BME280;47978;49.118;12.146;2022-11-20T06:31:19;96913.59;;;1.61;92.92
62025;BME280;47978;49.118;12.146;2022-11-20T06:33:46;96912.47;;;1.56;92.98
62025;BME280;47978;49.118;12.146;2022-11-20T06:36:13;96919.53;;;1.52;93.81
62025;BME280;47978;49.118;12.146;2022-11-20T06:38:40;96926.09;;;1.56;93.84
62025;BME280;47978;49.118;12.146;2022-11-20T06:41:08;96930.03;;;1.71;92.63
62025;BME280;47978;49.118;12.146;2022-11-20T06:43:36;96929.66;;;1.62;93.01
62025;BME280;47978;49.118;12.146;2022-11-20T06:46:03;96927.75;;;1.57;93.81
62025;BME280;47978;49.118;12.146;2022-11-20T06:48:29;96920.06;;;1.49;94.33
62025;BME280;47978;49.118;12.146;2022-11-20T06:50:56;96924.97;;;1.52;94.36
62025;BME280;47978;49.118;12.146;2022-11-20T06:53:22;96921.16;;;1.48;93.81
62025;BME280;47978;49.118;12.146;2022-11-20T06:55:51;96924.22;;;1.57;93.97
62025;BME280;47978;49.118;12.146;2022-11-20T06:58:19;96921.72;;;1.55;93.33
62025;BME280;47978;49.118;12.146;2022-11-20T07:00:45;96926.56;;;1.43;93.91
62025;BME280;47978;49.118;12.146;2022-11-20T07:03:12;96927.63;;;1.42;93.98
62025;BME280;47978;49.118;12.146;2022-11-20T07:05:38;96928.44;;;1.38;94.28
62025;BME280;47978;49.118;12.146;2022-11-20T07:08:05;96927.84;;;1.35;94.54
62025;BME280;47978;49.118;12.146;2022-11-20T07:10:31;96930.88;;;1.34;95.05
62025;BME280;47978;49.118;12.146;2022-11-20T07:12:58;96930.00;;;1.33;95.00
62025;BME280;47978;49.118;12.146;2022-11-20T07:15:25;96933.31;;;1.35;94.96
62025;BME280;47978;49.118;12.146;2022-11-20T07:17:52;96936.84;;;1.36;95.24
62025;BME280;47978;49.118;12.146;2022-11-20T07:20:18;96937.41;;;1.38;94.96
62025;BME280;47978;49.118;12.146;2022-11-20T07:22:45;96928.16;;;1.39;95.25
62025;BME280;47978;49.118;12.146;2022-11-20T07:25:11;96934.47;;;1.45;94.80
62025;BME280;47978;49.118;12.146;2022-11-20T07:27:37;96934.47;;;1.45;94.82
62025;BME280;47978;49.118;12.146;2022-11-20T07:30:04;96935.59;;;1.49;94.69
62025;BME280;47978;49.118;12.146;2022-11-20T07:32:32;96932.91;;;1.59;94.68
62025;BME280;47978;49.118;12.146;2022-11-20T07:34:58;96932.09;;;1.58;94.85
62025;BME280;47978;49.118;12.146;2022-11-20T07:37:25;96930.19;;;1.59;94.39
62025;BME280;47978;49.118;12.146;2022-11-20T07:39:51;96927.50;;;1.64;94.04
62025;BME280;47978;49.118;12.146;2022-11-20T07:42:17;96931.09;;;1.70;93.93
62025;BME280;47978;49.118;12.146;2022-11-20T07:44:44;96937.16;;;1.77;93.53
62025;BME280;47978;49.118;12.146;2022-11-20T07:47:10;96937.66;;;1.74;93.71
62025;BME280;47978;49.118;12.146;2022-11-20T07:49:38;96932.22;;;1.74;93.92
62025;BME280;47978;49.118;12.146;2022-11-20T07:52:04;96931.69;;;1.82;93.44
62025;BME280;47978;49.118;12.146;2022-11-20T07:54:30;96937.09;;;1.72;93.64
62025;BME280;47978;49.118;12.146;2022-11-20T07:56:57;96945.03;;;1.78;94.08
62025;BME280;47978;49.118;12.146;2022-11-20T07:59:23;96936.41;;;1.92;92.49
62025;BME280;47978;49.118;12.146;2022-11-20T08:01:50;96937.75;;;1.89;93.00
62025;BME280;47978;49.118;12.146;2022-11-20T08:04:16;96943.31;;;2.10;92.11
62025;BME280;47978;49.118;12.146;2022-11-20T08:06:44;96946.25;;;1.98;92.25
62025;BME280;47978;49.118;12.146;2022-11-20T08:09:10;96947.91;;;2.04;91.99
62025;BME280;47978;49.118;12.146;2022-11-20T08:11:37;96946.50;;;1.91;93.04
62025;BME280;47978;49.118;12.146;2022-11-20T08:14:03;96945.59;;;1.80;94.25
62025;BME280;47978;49.118;12.146;2022-11-20T08:16:29;96947.75;;;1.78;94.13
62025;BME280;47978;49.118;12.146;2022-11-20T08:18:56;96943.19;;;1.89;93.90
62025;BME280;47978;49.118;12.146;2022-11-20T08:21:22;96945.19;;;2.04;93.33
62025;BME280;47978;49.118;12.146;2022-11-20T08:23:50;96943.09;;;2.16;91.47
62025;BME280;47978;49.118;12.146;2022-11-20T08:26:16;96941.16;;;2.22;91.91
62025;BME280;47978;49.118;12.146;2022-11-20T08:28:42;96943.31;;;2.10;91.85
62025;BME280;47978;49.118;12.146;2022-11-20T08:31:09;96940.81;;;2.03;92.24
62025;BME280;47978;49.118;12.146;2022-11-20T08:33:36;96938.63;;;2.00;92.31
62025;BME280;47978;49.118;12.146;2022-11-20T08:36:02;96941.09;;;2.07;92.52
62025;BME280;47978;49.118;12.146;2022-11-20T08:38:29;96950.47;;;2.26;91.24
62025;BME280;47978;49.118;12.146;2022-11-20T08:40:57;96947.47;;;2.22;90.82
62025;BME280;47978;49.118;12.146;2022-11-20T08:43:24;96946.88;;;2.15;91.59
62025;BME280;47978;49.118;12.146;2022-11-20T08:45:50;96951.44;;;2.05;92.43
62025;BME280;47978;49.118;12.146;2022-11-20T08:48:16;96956.91;;;1.99;92.65
62025;BME280;47978;49.118;12.146;2022-11-20T08:50:43;96953.31;;;1.94;92.46
62025;BME280;47978;49.118;12.146;2022-11-20T08:53:09;96946.81;;;2.00;92.39
62025;BME280;47978;49.118;12.146;2022-11-20T08:55:35;96942.72;;;1.97;92.30
62025;BME280;47978;49.118;12.146;2022-11-20T08:58:04;96947.59;;;1.95;92.57
62025;BME280;47978;49.118;12.146;2022-11-20T09:00:30;96947.59;;;1.95;92.74
62025;BME280;47978;49.118;12.146;2022-11-20T09:02:57;96944.31;;;1.93;93.00
62025;BME280;47978;49.118;12.146;2022-11-20T09:05:24;96945.94;;;1.89;93.25
62025;BME280;47978;49.118;12.146;2022-11-20T09:07:50;96942.66;;;1.92;93.57
62025;BME280;47978;49.118;12.146;2022-11-20T09:10:16;96942.09;;;1.90;93.28
62025;BME280;47978;49.118;12.146;2022-11-20T09:12:50;96947.59;;;1.95;92.90
62025;BME280;47978;49.118;12.146;2022-11-20T09:15:18;96936.44;;;2.02;92.92
62025;BME280;47978;49.118;12.146;2022-11-20T09:17:50;96944.44;;;2.14;92.27
62025;BME280;47978;49.118;12.146;2022-11-20T09:20:16;96937.81;;;2.05;92.19
62025;BME280;47978;49.118;12.146;2022-11-20T09:22:42;96934.56;;;2.02;92.79
62025;BME280;47978;49.118;12.146;2022-11-20T09:25:09;96944.41;;;2.09;92.49
62025;BME280;47978;49.118;12.146;2022-11-20T09:27:35;96941.94;;;2.07;92.58
62025;BME280;47978;49.118;12.146;2022-11-20T09:30:01;96937.31;;;2.13;92.85
62025;BME280;47978;49.118;12.146;2022-11-20T09:32:29;96934.56;;;2.08;93.49
62025;BME280;47978;49.118;12.146;2022-11-20T09:34:55;96931.88;;;2.13;92.98
62025;BME280;47978;49.118;12.146;2022-11-20T09:37:22;96933.00;;;2.17;92.91
62025;BME280;47978;49.118;12.146;2022-11-20T09:39:48;96943.94;;;2.27;91.71
62025;BME280;47978;49.118;12.146;2022-11-20T09:42:22;96943.38;;;2.20;92.22
62025;BME280;47978;49.118;12.146;2022-11-20T09:45:10;96938.69;;;2.15;92.02
62025;BME280;47978;49.118;12.146;2022-11-20T09:47:45;96940.41;;;2.32;92.21
62025;BME280;47978;49.118;12.146;2022-11-20T09:50:21;96932.22;;;2.32;92.13
62025;BME280;47978;49.118;12.146;2022-11-20T09:52:52;96933.06;;;2.37;91.66
62025;BME280;47978;49.118;12.146;2022-11-20T09:55:21;96941.75;;;2.29;92.46
62025;BME280;47978;49.118;12.146;2022-11-20T09:57:48;96938.00;;;2.45;92.19
62025;BME280;47978;49.118;12.146;2022-11-20T10:00:17;96943.19;;;2.47;92.27
62025;BME280;47978;49.118;12.146;2022-11-20T10:02:46;96940.78;;;2.61;91.99
62025;BME280;47978;49.118;12.146;2022-11-20T10:05:15;96944.34;;;2.72;91.79
62025;BME280;47978;49.118;12.146;2022-11-20T10:07:44;96938.63;;;2.78;91.88
62025;BME280;47978;49.118;12.146;2022-11-20T10:10:14;96942.22;;;2.89;90.87
62025;BME280;47978;49.118;12.146;2022-11-20T10:12:46;96948.47;;;2.89;91.00
62025;BME280;47978;49.118;12.146;2022-11-20T10:15:21;96932.94;;;2.85;91.08
62025;BME280;47978;49.118;12.146;2022-11-20T10:17:55;96931.53;;;2.87;91.32
62025;BME280;47978;49.118;12.146;2022-11-20T10:20:27;96925.53;;;2.96;91.35
62025;BME280;47978;49.118;12.146;2022-11-20T10:23:03;96924.19;;;3.03;90.94
62025;BME280;47978;49.118;12.146;2022-11-20T10:25:38;96923.13;;;2.99;90.76
62025;BME280;47978;49.118;12.146;2022-11-20T10:28:15;96925.31;;;3.02;91.07
62025;BME280;47978;49.118;12.146;2022-11-20T10:30:44;96921.75;;;2.97;91.63
62025;BME280;47978;49.118;12.146;2022-11-20T10:33:15;96920.66;;;3.08;91.15
62025;BME280;47978;49.118;12.146;2022-11-20T10:35:43;96915.19;;;3.03;91.06
62025;BME280;47978;49.118;12.146;2022-11-20T10:38:12;96911.34;;;3.04;91.38
62025;BME280;47978;49.118;12.146;2022-11-20T10:40:41;96911.34;;;3.04;91.20
62025;BME280;47978;49.118;12.146;2022-11-20T10:43:10;96912.44;;;3.13;90.84
62025;BME280;47978;49.118;12.146;2022-11-20T10:45:46;96913.56;;;3.17;91.18
62025;BME280;47978;49.118;12.146;2022-11-20T10:48:16;96912.44;;;3.44;90.53
62025;BME280;47978;49.118;12.146;2022-11-20T10:50:53;96910.53;;;3.65;89.92
62025;BME280;47978;49.118;12.146;2022-11-20T10:53:28;96903.66;;;3.72;89.16
62025;BME280;47978;49.118;12.146;2022-11-20T10:55:55;96899.84;;;3.73;89.55
62025;BME280;47978;49.118;12.146;2022-11-20T10:58:26;96902.22;;;3.95;89.37
62025;BME280;47978;49.118;12.146;2022-11-20T11:01:03;96900.88;;;3.98;89.80
62025;BME280;47978;49.118;12.146;2022-11-20T11:03:31;96891.81;;;4.13;89.76
62025;BME280;47978;49.118;12.146;2022-11-20T11:05:59;96900.25;;;4.21;89.15
62025;BME280;47978;49.118;12.146;2022-11-20T11:08:28;96898.03;;;4.28;89.67
62025;BME280;47978;49.118;12.146;2022-11-20T11:10:59;96897.97;;;4.39;90.21
62025;BME280;47978;49.118;12.146;2022-11-20T11:13:27;96889.78;;;4.39;90.64
62025;BME280;47978;49.118;12.146;2022-11-20T11:15:53;96893.88;;;4.41;91.02
62025;BME280;47978;49.118;12.146;2022-11-20T11:18:24;96898.47;;;4.46;91.90
62025;BME280;47978;49.118;12.146;2022-11-20T11:20:52;96893.56;;;4.43;92.80
62025;BME280;47978;49.118;12.146;2022-11-20T11:23:26;96884.19;;;4.59;93.32
62025;BME280;47978;49.118;12.146;2022-11-20T11:25:56;96890.47;;;4.60;93.06
62025;BME280;47978;49.118;12.146;2022-11-20T11:28:23;96893.44;;;4.68;93.03
62025;BME280;47978;49.118;12.146;2022-11-20T11:30:50;96884.59;;;4.82;92.92
62025;BME280;47978;49.118;12.146;2022-11-20T11:33:18;96885.44;;;4.77;92.59
62025;BME280;47978;49.118;12.146;2022-11-20T11:35:47;96880.25;;;4.76;91.93
62025;BME280;47978;49.118;12.146;2022-11-20T11:38:19;96874.22;;;4.79;90.36
62025;BME280;47978;49.118;12.146;2022-11-20T11:40:47;96874.47;;;4.77;91.26
62025;BME280;47978;49.118;12.146;2022-11-20T11:43:17;96873.66;;;4.77;91.59
62025;BME280;47978;49.118;12.146;2022-11-20T11:45:50;96868.75;;;4.73;91.23
62025;BME280;47978;49.118;12.146;2022-11-20T11:48:17;96871.78;;;4.72;91.24
62025;BME280;47978;49.118;12.146;2022-11-20T11:50:47;96862.19;;;4.69;91.21
62025;BME280;47978;49.118;12.146;2022-11-20T11:53:14;96870.75;;;4.58;90.54
62025;BME280;47978;49.118;12.146;2022-11-20T11:55:44;96864.44;;;4.62;91.17
62025;BME280;47978;49.118;12.146;2022-11-20T11:58:14;96853.94;;;4.80;90.96
62025;BME280;47978;49.118;12.146;2022-11-20T12:00:45;96865.41;;;4.87;92.61
62025;BME280;47978;49.118;12.146;2022-11-20T12:03:14;96861.47;;;4.98;92.69
62025;BME280;47978;49.118;12.146;2022-11-20T12:05:42;96855.66;;;5.05;92.23
62025;BME280;47978;49.118;12.146;2022-11-20T12:08:12;96850.84;;;5.21;92.40
62025;BME280;47978;49.118;12.146;2022-11-20T12:10:41;96852.78;;;5.20;92.42
62025;BME280;47978;49.118;12.146;2022-11-20T12:13:15;96853.31;;;5.22;92.48
62025;BME280;47978;49.118;12.146;2022-11-20T12:15:44;96853.56;;;5.26;92.38
62025;BME280;47978;49.118;12.146;2022-11-20T12:18:15;96852.41;;;5.32;92.78
62025;BME280;47978;49.118;12.146;2022-11-20T12:20:45;96846.91;;;5.32;92.69
62025;BME280;47978;49.118;12.146;2022-11-20T12:23:15;96847.38;;;5.44;92.64
62025;BME280;47978;49.118;12.146;2022-11-20T12:25:45;96837.84;;;5.36;92.56
62025;BME280;47978;49.118;12.146;2022-11-20T12:31:06;96844.09;;;5.42;92.20
62025;BME280;47978;49.118;12.146;2022-11-20T12:33:50;96834.25;;;5.41;92.27
62025;BME280;47978;49.118;12.146;2022-11-20T12:36:24;96829.38;;;5.33;92.27
62025;BME280;47978;49.118;12.146;2022-11-20T12:38:57;96843.66;;;5.30;92.50
62025;BME280;47978;49.118;12.146;2022-11-20T12:41:29;96835.94;;;5.32;92.73
62025;BME280;47978;49.118;12.146;2022-11-20T12:44:05;96833.72;;;5.39;92.80
62025;BME280;47978;49.118;12.146;2022-11-20T12:46:38;96830.84;;;5.49;91.93
62025;BME280;47978;49.118;12.146;2022-11-20T12:49:20;96834.25;;;5.41;92.05
62025;BME280;47978;49.118;12.146;2022-11-20T12:51:56;96831.16;;;5.48;92.50
62025;BME280;47978;49.118;12.146;2022-11-20T12:54:35;96827.81;;;5.51;92.34
62025;BME280;47978;49.118;12.146;2022-11-20T12:57:07;96830.81;;;5.54;91.82
62025;BME280;47978;49.118;12.146;2022-11-20T12:59:42;96829.44;;;5.52;91.38
62025;BME280;47978;49.118;12.146;2022-11-20T13:02:15;96832.69;;;5.59;91.69
62025;BME280;47978;49.118;12.146;2022-11-20T13:04:54;96834.06;;;5.56;91.92
62025;BME280;47978;49.118;12.146;2022-11-20T13:07:22;96829.13;;;5.58;92.08
62025;BME280;47978;49.118;12.146;2022-11-20T13:09:50;96830.16;;;5.62;91.69